sensor_id;sensor_type;location;lat;lon;timestamp;temperature;humidity
6792;DHT22;3433;48.730;9.108;2023-02-12T00:02:09;7.40;96.10
6792;DHT22;3433;48.730;9.108;2023-02-12T00:04:58;7.40;96.00
6792;DHT22;3433;48.730;9.108;2023-02-12T00:07:46;7.40;95.80
6792;DHT22;3433;48.730;9.108;2023-02-12T00:10:39;7.40;95.80
6792;DHT22;3433;48.730;9.108;2023-02-12T00:13:30;7.40;95.90
6792;DHT22;3433;48.730;9.108;2023-02-12T00:16:19;7.40;95.80
6792;DHT22;3433;48.730;9.108;2023-02-12T00:19:08;7.40;96.00
6792;DHT22;3433;48.730;9.108;2023-02-12T00:21:57;7.40;96.00
6792;DHT22;3433;48.730;9.108;2023-02-12T00:24:44;7.40;96.00
6792;DHT22;3433;48.730;9.108;2023-02-12T00:27:32;7.50;96.20
6792;DHT22;3433;48.730;9.108;2023-02-12T00:30:21;7.50;96.00
6792;DHT22;3433;48.730;9.108;2023-02-12T00:33:08;7.50;96.10
6792;DHT22;3433;48.730;9.108;2023-02-12T00:35:56;7.40;96.10
6792;DHT22;3433;48.730;9.108;2023-02-12T00:38:45;7.40;96.20
6792;DHT22;3433;48.730;9.108;2023-02-12T00:41:34;7.40;96.20
6792;DHT22;3433;48.730;9.108;2023-02-12T00:44:22;7.40;96.30
6792;DHT22;3433;48.730;9.108;2023-02-12T00:47:09;7.40;96.20
6792;DHT22;3433;48.730;9.108;2023-02-12T00:49:57;7.40;96.20
6792;DHT22;3433;48.730;9.108;2023-02-12T00:52:44;7.40;96.30
6792;DHT22;3433;48.730;9.108;2023-02-12T00:55:33;7.40;96.30
6792;DHT22;3433;48.730;9.108;2023-02-12T00:58:21;7.40;96.30
6792;DHT22;3433;48.730;9.108;2023-02-12T01:01:08;7.30;96.20
6792;DHT22;3433;48.730;9.108;2023-02-12T01:03:56;7.30;96.30
6792;DHT22;3433;48.730;9.108;2023-02-12T01:06:43;7.30;96.40
6792;DHT22;3433;48.730;9.108;2023-02-12T01:09:31;7.30;96.50
6792;DHT22;3433;48.730;9.108;2023-02-12T01:12:19;7.30;96.40
6792;DHT22;3433;48.730;9.108;2023-02-12T01:15:07;7.30;96.40
6792;DHT22;3433;48.730;9.108;2023-02-12T01:17:55;7.20;96.40
6792;DHT22;3433;48.730;9.108;2023-02-12T01:20:43;7.20;96.40
6792;DHT22;3433;48.730;9.108;2023-02-12T01:23:30;7.30;96.50
6792;DHT22;3433;48.730;9.108;2023-02-12T01:26:18;7.20;96.50
6792;DHT22;3433;48.730;9.108;2023-02-12T01:29:07;7.20;96.50
6792;DHT22;3433;48.730;9.108;2023-02-12T01:31:54;7.20;96.60
6792;DHT22;3433;48.730;9.108;2023-02-12T01:34:41;7.20;96.60
6792;DHT22;3433;48.730;9.108;2023-02-12T01:37:28;7.20;96.60
6792;DHT22;3433;48.730;9.108;2023-02-12T01:40:16;7.20;96.70
6792;DHT22;3433;48.730;9.108;2023-02-12T01:43:05;7.10;96.70
6792;DHT22;3433;48.730;9.108;2023-02-12T01:45:54;7.20;96.70
6792;DHT22;3433;48.730;9.108;2023-02-12T01:48:44;7.10;96.70
6792;DHT22;3433;48.730;9.108;2023-02-12T01:51:34;7.10;96.80
6792;DHT22;3433;48.730;9.108;2023-02-12T01:54:23;7.10;96.80
6792;DHT22;3433;48.730;9.108;2023-02-12T01:57:12;7.10;96.80
6792;DHT22;3433;48.730;9.108;2023-02-12T02:00:01;7.10;96.80
6792;DHT22;3433;48.730;9.108;2023-02-12T02:02:54;7.10;96.80
6792;DHT22;3433;48.730;9.108;2023-02-12T02:05:46;7.10;96.80
6792;DHT22;3433;48.730;9.108;2023-02-12T02:08:37;7.10;96.80
6792;DHT22;3433;48.730;9.108;2023-02-12T02:11:24;7.10;97.00
6792;DHT22;3433;48.730;9.108;2023-02-12T02:14:29;7.10;97.30
6792;DHT22;3433;48.730;9.108;2023-02-12T02:17:42;7.10;97.00
6792;DHT22;3433;48.730;9.108;2023-02-12T02:21:00;7.10;96.90
6792;DHT22;3433;48.730;9.108;2023-02-12T02:24:10;7.10;97.00
6792;DHT22;3433;48.730;9.108;2023-02-12T02:27:14;7.10;97.00
6792;DHT22;3433;48.730;9.108;2023-02-12T02:30:34;7.10;97.10
6792;DHT22;3433;48.730;9.108;2023-02-12T02:33:33;7.00;97.20
6792;DHT22;3433;48.730;9.108;2023-02-12T02:36:27;7.00;97.10
6792;DHT22;3433;48.730;9.108;2023-02-12T02:39:24;7.00;97.50
6792;DHT22;3433;48.730;9.108;2023-02-12T02:42:16;7.00;97.20
6792;DHT22;3433;48.730;9.108;2023-02-12T02:45:10;7.00;97.20
6792;DHT22;3433;48.730;9.108;2023-02-12T02:48:02;7.00;97.20
6792;DHT22;3433;48.730;9.108;2023-02-12T02:50:53;7.00;97.20
6792;DHT22;3433;48.730;9.108;2023-02-12T02:53:44;7.00;97.20
6792;DHT22;3433;48.730;9.108;2023-02-12T02:56:35;7.00;97.30
6792;DHT22;3433;48.730;9.108;2023-02-12T02:59:27;7.00;97.40
6792;DHT22;3433;48.730;9.108;2023-02-12T03:02:19;7.00;97.40
6792;DHT22;3433;48.730;9.108;2023-02-12T03:05:13;7.00;97.50
6792;DHT22;3433;48.730;9.108;2023-02-12T03:08:07;7.00;97.50
6792;DHT22;3433;48.730;9.108;2023-02-12T03:11:01;7.00;97.50
6792;DHT22;3433;48.730;9.108;2023-02-12T03:13:55;7.00;97.60
6792;DHT22;3433;48.730;9.108;2023-02-12T03:16:49;7.00;97.50
6792;DHT22;3433;48.730;9.108;2023-02-12T03:19:41;7.00;97.60
6792;DHT22;3433;48.730;9.108;2023-02-12T03:22:32;7.00;97.50
6792;DHT22;3433;48.730;9.108;2023-02-12T03:25:24;7.00;97.60
6792;DHT22;3433;48.730;9.108;2023-02-12T03:28:15;7.00;97.60
6792;DHT22;3433;48.730;9.108;2023-02-12T03:31:09;7.00;97.70
6792;DHT22;3433;48.730;9.108;2023-02-12T03:34:05;7.00;97.60
6792;DHT22;3433;48.730;9.108;2023-02-12T03:36:58;7.00;97.70
6792;DHT22;3433;48.730;9.108;2023-02-12T03:39:53;7.10;97.80
6792;DHT22;3433;48.730;9.108;2023-02-12T03:42:47;7.10;97.80
6792;DHT22;3433;48.730;9.108;2023-02-12T03:45:43;7.10;97.90
6792;DHT22;3433;48.730;9.108;2023-02-12T03:48:34;7.10;97.90
6792;DHT22;3433;48.730;9.108;2023-02-12T03:51:27;7.00;97.80
6792;DHT22;3433;48.730;9.108;2023-02-12T03:54:18;7.10;97.80
6792;DHT22;3433;48.730;9.108;2023-02-12T03:57:10;7.10;97.90
6792;DHT22;3433;48.730;9.108;2023-02-12T04:00:03;7.10;97.90
6792;DHT22;3433;48.730;9.108;2023-02-12T04:02:51;7.10;98.00
6792;DHT22;3433;48.730;9.108;2023-02-12T04:05:39;7.10;97.90
6792;DHT22;3433;48.730;9.108;2023-02-12T04:08:27;7.10;98.00
6792;DHT22;3433;48.730;9.108;2023-02-12T04:11:23;7.10;98.00
6792;DHT22;3433;48.730;9.108;2023-02-12T04:14:21;7.00;97.90
6792;DHT22;3433;48.730;9.108;2023-02-12T04:17:16;7.00;98.20
6792;DHT22;3433;48.730;9.108;2023-02-12T04:20:10;7.00;97.80
6792;DHT22;3433;48.730;9.108;2023-02-12T04:23:08;7.00;97.80
6792;DHT22;3433;48.730;9.108;2023-02-12T04:26:04;7.00;98.00
6792;DHT22;3433;48.730;9.108;2023-02-12T04:29:05;7.00;98.00
6792;DHT22;3433;48.730;9.108;2023-02-12T04:31:59;7.00;98.00
6792;DHT22;3433;48.730;9.108;2023-02-12T04:34:51;7.00;98.10
6792;DHT22;3433;48.730;9.108;2023-02-12T04:37:42;7.00;98.20
6792;DHT22;3433;48.730;9.108;2023-02-12T04:40:31;7.00;98.10
6792;DHT22;3433;48.730;9.108;2023-02-12T04:43:26;7.00;98.70
6792;DHT22;3433;48.730;9.108;2023-02-12T04:46:13;6.90;98.30
6792;DHT22;3433;48.730;9.108;2023-02-12T04:49:02;7.00;98.50
6792;DHT22;3433;48.730;9.108;2023-02-12T04:51:50;7.00;98.30
6792;DHT22;3433;48.730;9.108;2023-02-12T04:54:37;7.00;98.40
6792;DHT22;3433;48.730;9.108;2023-02-12T04:57:24;7.00;98.30
6792;DHT22;3433;48.730;9.108;2023-02-12T05:00:13;7.00;98.30
6792;DHT22;3433;48.730;9.108;2023-02-12T05:03:01;7.00;98.20
6792;DHT22;3433;48.730;9.108;2023-02-12T05:05:50;7.00;98.30
6792;DHT22;3433;48.730;9.108;2023-02-12T05:08:37;7.00;98.30
6792;DHT22;3433;48.730;9.108;2023-02-12T05:11:24;7.00;98.30
6792;DHT22;3433;48.730;9.108;2023-02-12T05:14:11;7.00;98.30
6792;DHT22;3433;48.730;9.108;2023-02-12T05:16:58;7.10;98.30
6792;DHT22;3433;48.730;9.108;2023-02-12T05:19:46;7.10;98.60
6792;DHT22;3433;48.730;9.108;2023-02-12T05:22:35;7.10;98.80
6792;DHT22;3433;48.730;9.108;2023-02-12T05:25:22;7.10;98.60
6792;DHT22;3433;48.730;9.108;2023-02-12T05:28:09;7.00;98.40
6792;DHT22;3433;48.730;9.108;2023-02-12T05:30:58;7.00;98.60
6792;DHT22;3433;48.730;9.108;2023-02-12T05:33:47;7.00;98.60
6792;DHT22;3433;48.730;9.108;2023-02-12T05:36:35;7.00;98.80
6792;DHT22;3433;48.730;9.108;2023-02-12T05:39:23;7.00;99.00
6792;DHT22;3433;48.730;9.108;2023-02-12T05:42:10;7.00;98.70
6792;DHT22;3433;48.730;9.108;2023-02-12T05:44:58;6.90;98.70
6792;DHT22;3433;48.730;9.108;2023-02-12T05:47:45;6.90;98.70
6792;DHT22;3433;48.730;9.108;2023-02-12T05:50:32;6.90;98.80
6792;DHT22;3433;48.730;9.108;2023-02-12T05:53:19;6.90;99.00
6792;DHT22;3433;48.730;9.108;2023-02-12T05:56:13;6.90;98.90
6792;DHT22;3433;48.730;9.108;2023-02-12T05:59:02;6.90;98.80
6792;DHT22;3433;48.730;9.108;2023-02-12T06:01:51;6.90;98.80
6792;DHT22;3433;48.730;9.108;2023-02-12T06:04:38;6.90;98.80
6792;DHT22;3433;48.730;9.108;2023-02-12T06:07:25;6.90;98.80
6792;DHT22;3433;48.730;9.108;2023-02-12T06:10:13;6.90;98.80
6792;DHT22;3433;48.730;9.108;2023-02-12T06:13:01;6.90;98.70
6792;DHT22;3433;48.730;9.108;2023-02-12T06:15:48;6.90;98.80
6792;DHT22;3433;48.730;9.108;2023-02-12T06:18:36;6.90;98.80
6792;DHT22;3433;48.730;9.108;2023-02-12T06:21:25;6.90;99.00
6792;DHT22;3433;48.730;9.108;2023-02-12T06:24:13;6.90;98.90
6792;DHT22;3433;48.730;9.108;2023-02-12T06:27:01;6.90;98.80
6792;DHT22;3433;48.730;9.108;2023-02-12T06:29:49;6.90;98.90
6792;DHT22;3433;48.730;9.108;2023-02-12T06:32:36;6.90;98.90
6792;DHT22;3433;48.730;9.108;2023-02-12T06:35:24;6.90;99.00
6792;DHT22;3433;48.730;9.108;2023-02-12T06:38:11;6.90;99.10
6792;DHT22;3433;48.730;9.108;2023-02-12T06:41:00;6.90;99.10
6792;DHT22;3433;48.730;9.108;2023-02-12T06:43:47;7.00;99.00
6792;DHT22;3433;48.730;9.108;2023-02-12T06:46:36;7.00;99.20
6792;DHT22;3433;48.730;9.108;2023-02-12T06:49:23;7.00;99.30
6792;DHT22;3433;48.730;9.108;2023-02-12T06:52:11;6.80;99.20
6792;DHT22;3433;48.730;9.108;2023-02-12T06:54:58;6.90;99.50
6792;DHT22;3433;48.730;9.108;2023-02-12T06:57:46;7.00;99.80
6792;DHT22;3433;48.730;9.108;2023-02-12T07:00:33;7.00;99.80
6792;DHT22;3433;48.730;9.108;2023-02-12T07:03:22;7.00;99.60
6792;DHT22;3433;48.730;9.108;2023-02-12T07:06:09;7.10;99.60
6792;DHT22;3433;48.730;9.108;2023-02-12T07:09:01;7.10;99.70
6792;DHT22;3433;48.730;9.108;2023-02-12T07:11:49;7.10;99.70
6792;DHT22;3433;48.730;9.108;2023-02-12T07:14:37;7.10;99.70
6792;DHT22;3433;48.730;9.108;2023-02-12T07:17:24;7.10;99.90
6792;DHT22;3433;48.730;9.108;2023-02-12T07:20:13;7.20;99.70
6792;DHT22;3433;48.730;9.108;2023-02-12T07:23:00;7.20;99.90
6792;DHT22;3433;48.730;9.108;2023-02-12T07:25:53;7.30;99.90
6792;DHT22;3433;48.730;9.108;2023-02-12T07:28:42;7.20;99.90
6792;DHT22;3433;48.730;9.108;2023-02-12T07:31:29;7.20;99.90
6792;DHT22;3433;48.730;9.108;2023-02-12T07:34:17;7.20;99.90
6792;DHT22;3433;48.730;9.108;2023-02-12T07:37:05;7.20;99.90
6792;DHT22;3433;48.730;9.108;2023-02-12T07:39:52;7.20;99.90
6792;DHT22;3433;48.730;9.108;2023-02-12T07:42:40;7.20;99.90
6792;DHT22;3433;48.730;9.108;2023-02-12T07:45:27;7.20;99.90
6792;DHT22;3433;48.730;9.108;2023-02-12T07:48:14;7.30;99.90
6792;DHT22;3433;48.730;9.108;2023-02-12T07:51:06;7.20;99.90
6792;DHT22;3433;48.730;9.108;2023-02-12T07:53:55;7.20;99.90
6792;DHT22;3433;48.730;9.108;2023-02-12T07:56:43;7.10;99.90
6792;DHT22;3433;48.730;9.108;2023-02-12T07:59:31;7.20;99.90
6792;DHT22;3433;48.730;9.108;2023-02-12T08:02:18;7.20;99.90
6792;DHT22;3433;48.730;9.108;2023-02-12T08:05:06;7.30;99.90
6792;DHT22;3433;48.730;9.108;2023-02-12T08:07:54;7.30;99.90
6792;DHT22;3433;48.730;9.108;2023-02-12T08:10:42;7.30;99.90
6792;DHT22;3433;48.730;9.108;2023-02-12T08:13:30;7.30;99.90
6792;DHT22;3433;48.730;9.108;2023-02-12T08:16:19;7.20;99.90
6792;DHT22;3433;48.730;9.108;2023-02-12T08:19:07;7.20;99.90
6792;DHT22;3433;48.730;9.108;2023-02-12T08:21:55;7.10;99.90
6792;DHT22;3433;48.730;9.108;2023-02-12T08:24:43;7.10;99.90
6792;DHT22;3433;48.730;9.108;2023-02-12T08:27:32;7.10;99.90
6792;DHT22;3433;48.730;9.108;2023-02-12T08:30:19;7.20;99.90
6792;DHT22;3433;48.730;9.108;2023-02-12T08:33:06;7.20;99.90
6792;DHT22;3433;48.730;9.108;2023-02-12T08:36:00;7.10;99.90
6792;DHT22;3433;48.730;9.108;2023-02-12T08:38:48;7.20;99.90
6792;DHT22;3433;48.730;9.108;2023-02-12T08:41:36;7.30;99.90
6792;DHT22;3433;48.730;9.108;2023-02-12T08:44:25;7.20;99.90
6792;DHT22;3433;48.730;9.108;2023-02-12T08:47:12;7.30;99.90
6792;DHT22;3433;48.730;9.108;2023-02-12T08:49:59;7.30;99.90
6792;DHT22;3433;48.730;9.108;2023-02-12T08:52:47;7.30;99.90
6792;DHT22;3433;48.730;9.108;2023-02-12T08:55:34;7.40;99.90
6792;DHT22;3433;48.730;9.108;2023-02-12T08:58:21;7.30;99.90
6792;DHT22;3433;48.730;9.108;2023-02-12T09:01:12;7.30;99.90
6792;DHT22;3433;48.730;9.108;2023-02-12T09:04:00;7.30;99.90
6792;DHT22;3433;48.730;9.108;2023-02-12T09:06:48;7.30;99.90
6792;DHT22;3433;48.730;9.108;2023-02-12T09:09:36;7.40;99.90
6792;DHT22;3433;48.730;9.108;2023-02-12T09:12:23;7.50;99.90
6792;DHT22;3433;48.730;9.108;2023-02-12T09:15:10;7.50;99.90
6792;DHT22;3433;48.730;9.108;2023-02-12T09:17:59;7.70;99.90
6792;DHT22;3433;48.730;9.108;2023-02-12T09:20:48;7.60;99.90
6792;DHT22;3433;48.730;9.108;2023-02-12T09:23:36;7.80;99.90
6792;DHT22;3433;48.730;9.108;2023-02-12T09:26:24;7.70;99.90
6792;DHT22;3433;48.730;9.108;2023-02-12T09:29:12;7.70;99.90
6792;DHT22;3433;48.730;9.108;2023-02-12T09:31:59;7.70;99.90
6792;DHT22;3433;48.730;9.108;2023-02-12T09:34:48;7.80;99.90
6792;DHT22;3433;48.730;9.108;2023-02-12T09:37:36;7.90;99.90
6792;DHT22;3433;48.730;9.108;2023-02-12T09:40:30;7.90;99.90
6792;DHT22;3433;48.730;9.108;2023-02-12T09:43:24;7.90;99.90
6792;DHT22;3433;48.730;9.108;2023-02-12T09:46:20;7.80;99.90
6792;DHT22;3433;48.730;9.108;2023-02-12T09:49:11;7.90;99.90
6792;DHT22;3433;48.730;9.108;2023-02-12T09:52:03;7.90;99.90
6792;DHT22;3433;48.730;9.108;2023-02-12T09:54:52;7.80;99.90
6792;DHT22;3433;48.730;9.108;2023-02-12T09:57:39;7.90;99.90
6792;DHT22;3433;48.730;9.108;2023-02-12T10:00:29;8.10;99.90
6792;DHT22;3433;48.730;9.108;2023-02-12T10:03:17;8.10;99.90
6792;DHT22;3433;48.730;9.108;2023-02-12T10:06:08;8.20;99.90
6792;DHT22;3433;48.730;9.108;2023-02-12T10:09:25;8.30;99.90
6792;DHT22;3433;48.730;9.108;2023-02-12T10:12:23;8.30;99.90
6792;DHT22;3433;48.730;9.108;2023-02-12T10:15:25;8.40;99.90
6792;DHT22;3433;48.730;9.108;2023-02-12T10:18:25;8.30;99.90
6792;DHT22;3433;48.730;9.108;2023-02-12T10:21:32;8.50;99.90
6792;DHT22;3433;48.730;9.108;2023-02-12T10:24:38;8.40;99.90
6792;DHT22;3433;48.730;9.108;2023-02-12T10:27:37;8.40;99.90
6792;DHT22;3433;48.730;9.108;2023-02-12T10:30:30;8.40;99.90
6792;DHT22;3433;48.730;9.108;2023-02-12T10:33:26;8.50;99.90
6792;DHT22;3433;48.730;9.108;2023-02-12T10:36:22;8.30;99.90
6792;DHT22;3433;48.730;9.108;2023-02-12T10:39:19;8.30;99.90
6792;DHT22;3433;48.730;9.108;2023-02-12T10:42:10;8.30;99.90
6792;DHT22;3433;48.730;9.108;2023-02-12T10:45:01;8.30;99.90
6792;DHT22;3433;48.730;9.108;2023-02-12T10:47:51;8.30;99.90
6792;DHT22;3433;48.730;9.108;2023-02-12T10:50:49;8.40;99.90
6792;DHT22;3433;48.730;9.108;2023-02-12T10:53:39;8.50;99.90
6792;DHT22;3433;48.730;9.108;2023-02-12T10:56:26;8.60;99.90
6792;DHT22;3433;48.730;9.108;2023-02-12T10:59:22;8.50;99.90
6792;DHT22;3433;48.730;9.108;2023-02-12T11:02:24;8.50;99.90
6792;DHT22;3433;48.730;9.108;2023-02-12T11:05:22;8.50;99.90
6792;DHT22;3433;48.730;9.108;2023-02-12T11:08:27;8.40;99.90
6792;DHT22;3433;48.730;9.108;2023-02-12T11:11:19;8.50;99.90
6792;DHT22;3433;48.730;9.108;2023-02-12T11:14:16;8.60;99.90
6792;DHT22;3433;48.730;9.108;2023-02-12T11:17:21;8.70;99.90
6792;DHT22;3433;48.730;9.108;2023-02-12T11:20:21;8.80;99.90
6792;DHT22;3433;48.730;9.108;2023-02-12T11:23:24;9.00;99.90
6792;DHT22;3433;48.730;9.108;2023-02-12T11:26:24;9.00;99.90
6792;DHT22;3433;48.730;9.108;2023-02-12T11:29:18;8.80;99.90
6792;DHT22;3433;48.730;9.108;2023-02-12T11:32:16;9.00;99.90
6792;DHT22;3433;48.730;9.108;2023-02-12T11:35:05;8.90;99.90
6792;DHT22;3433;48.730;9.108;2023-02-12T11:37:54;9.00;99.90
6792;DHT22;3433;48.730;9.108;2023-02-12T11:40:45;9.10;99.90
6792;DHT22;3433;48.730;9.108;2023-02-12T11:43:34;9.00;99.90
6792;DHT22;3433;48.730;9.108;2023-02-12T11:46:26;9.20;99.90
6792;DHT22;3433;48.730;9.108;2023-02-12T11:49:20;9.10;99.90
6792;DHT22;3433;48.730;9.108;2023-02-12T11:52:17;9.20;99.90
6792;DHT22;3433;48.730;9.108;2023-02-12T11:55:17;9.10;99.90
6792;DHT22;3433;48.730;9.108;2023-02-12T11:58:14;8.80;99.90
6792;DHT22;3433;48.730;9.108;2023-02-12T12:01:08;8.70;99.90
6792;DHT22;3433;48.730;9.108;2023-02-12T12:04:02;9.00;99.90
6792;DHT22;3433;48.730;9.108;2023-02-12T12:06:56;9.00;99.90
6792;DHT22;3433;48.730;9.108;2023-02-12T12:09:47;8.80;99.90
6792;DHT22;3433;48.730;9.108;2023-02-12T12:12:39;9.00;99.90
6792;DHT22;3433;48.730;9.108;2023-02-12T12:15:31;9.00;99.90
6792;DHT22;3433;48.730;9.108;2023-02-12T12:18:44;9.10;99.90
6792;DHT22;3433;48.730;9.108;2023-02-12T12:21:57;9.20;99.90
6792;DHT22;3433;48.730;9.108;2023-02-12T12:24:51;9.20;99.90
6792;DHT22;3433;48.730;9.108;2023-02-12T12:27:43;9.30;99.90
6792;DHT22;3433;48.730;9.108;2023-02-12T12:30:58;9.20;99.90
6792;DHT22;3433;48.730;9.108;2023-02-12T12:33:50;9.20;99.90
6792;DHT22;3433;48.730;9.108;2023-02-12T12:37:17;9.20;99.90
6792;DHT22;3433;48.730;9.108;2023-02-12T12:40:24;9.20;99.90
6792;DHT22;3433;48.730;9.108;2023-02-12T12:43:23;9.40;99.90
6792;DHT22;3433;48.730;9.108;2023-02-12T12:49:12;9.50;99.90
6792;DHT22;3433;48.730;9.108;2023-02-12T12:52:38;9.50;99.90
6792;DHT22;3433;48.730;9.108;2023-02-12T12:55:52;9.70;99.90
6792;DHT22;3433;48.730;9.108;2023-02-12T12:58:52;9.50;99.90
6792;DHT22;3433;48.730;9.108;2023-02-12T13:01:57;9.50;99.90
6792;DHT22;3433;48.730;9.108;2023-02-12T13:05:11;9.60;99.90
6792;DHT22;3433;48.730;9.108;2023-02-12T13:08:12;9.90;99.90
6792;DHT22;3433;48.730;9.108;2023-02-12T13:11:10;10.00;99.90
6792;DHT22;3433;48.730;9.108;2023-02-12T13:14:07;9.80;99.90
6792;DHT22;3433;48.730;9.108;2023-02-12T13:17:01;9.80;99.90
6792;DHT22;3433;48.730;9.108;2023-02-12T13:20:01;9.80;99.90
6792;DHT22;3433;48.730;9.108;2023-02-12T13:22:56;10.10;99.90
6792;DHT22;3433;48.730;9.108;2023-02-12T13:25:52;9.80;99.90
6792;DHT22;3433;48.730;9.108;2023-02-12T13:28:45;9.60;99.90
6792;DHT22;3433;48.730;9.108;2023-02-12T13:31:41;9.60;99.90
6792;DHT22;3433;48.730;9.108;2023-02-12T13:34:31;9.80;99.90
6792;DHT22;3433;48.730;9.108;2023-02-12T13:37:27;10.10;99.90
6792;DHT22;3433;48.730;9.108;2023-02-12T13:40:18;10.20;99.90
6792;DHT22;3433;48.730;9.108;2023-02-12T13:43:17;10.30;99.90
6792;DHT22;3433;48.730;9.108;2023-02-12T13:46:16;10.50;99.90
6792;DHT22;3433;48.730;9.108;2023-02-12T13:49:13;10.60;99.90
6792;DHT22;3433;48.730;9.108;2023-02-12T13:52:05;10.90;99.90
6792;DHT22;3433;48.730;9.108;2023-02-12T13:55:04;11.30;99.90
6792;DHT22;3433;48.730;9.108;2023-02-12T14:01:39;11.70;99.90
6792;DHT22;3433;48.730;9.108;2023-02-12T14:04:29;12.30;99.90
6792;DHT22;3433;48.730;9.108;2023-02-12T14:07:17;12.60;99.90
6792;DHT22;3433;48.730;9.108;2023-02-12T14:10:06;12.80;99.90
6792;DHT22;3433;48.730;9.108;2023-02-12T14:12:57;13.00;99.90
6792;DHT22;3433;48.730;9.108;2023-02-12T14:15:48;13.30;99.90
6792;DHT22;3433;48.730;9.108;2023-02-12T14:18:38;13.30;99.90
6792;DHT22;3433;48.730;9.108;2023-02-12T14:21:34;13.50;99.90
6792;DHT22;3433;48.730;9.108;2023-02-12T14:24:49;13.30;99.90
6792;DHT22;3433;48.730;9.108;2023-02-12T14:27:41;13.20;99.60
6792;DHT22;3433;48.730;9.108;2023-02-12T14:30:32;13.00;99.90
6792;DHT22;3433;48.730;9.108;2023-02-12T14:33:23;13.10;99.90
6792;DHT22;3433;48.730;9.108;2023-02-12T14:36:18;12.90;99.60
6792;DHT22;3433;48.730;9.108;2023-02-12T14:39:27;12.80;99.90
6792;DHT22;3433;48.730;9.108;2023-02-12T14:42:42;12.90;99.90
6792;DHT22;3433;48.730;9.108;2023-02-12T14:45:32;13.10;99.90
6792;DHT22;3433;48.730;9.108;2023-02-12T14:48:44;13.10;99.90
6792;DHT22;3433;48.730;9.108;2023-02-12T14:51:41;13.20;99.90
6792;DHT22;3433;48.730;9.108;2023-02-12T14:54:33;13.30;99.90
6792;DHT22;3433;48.730;9.108;2023-02-12T14:57:24;13.20;99.90
6792;DHT22;3433;48.730;9.108;2023-02-12T15:00:20;12.70;99.90
6792;DHT22;3433;48.730;9.108;2023-02-12T15:03:22;12.30;99.90
6792;DHT22;3433;48.730;9.108;2023-02-12T15:06:15;12.40;99.90
6792;DHT22;3433;48.730;9.108;2023-02-12T15:09:20;12.20;99.90
6792;DHT22;3433;48.730;9.108;2023-02-12T15:12:18;12.10;99.90
6792;DHT22;3433;48.730;9.108;2023-02-12T15:15:12;12.20;99.90
6792;DHT22;3433;48.730;9.108;2023-02-12T15:18:03;12.10;99.90
6792;DHT22;3433;48.730;9.108;2023-02-12T15:20:58;11.80;99.90
6792;DHT22;3433;48.730;9.108;2023-02-12T15:23:56;11.70;99.90
6792;DHT22;3433;48.730;9.108;2023-02-12T15:26:47;11.50;99.90
6792;DHT22;3433;48.730;9.108;2023-02-12T15:29:40;11.10;99.90
6792;DHT22;3433;48.730;9.108;2023-02-12T15:32:30;11.10;99.90
6792;DHT22;3433;48.730;9.108;2023-02-12T15:35:24;11.00;99.90
6792;DHT22;3433;48.730;9.108;2023-02-12T15:38:19;10.60;99.90
6792;DHT22;3433;48.730;9.108;2023-02-12T15:41:08;10.60;99.90
6792;DHT22;3433;48.730;9.108;2023-02-12T15:43:58;10.70;99.90
6792;DHT22;3433;48.730;9.108;2023-02-12T15:46:53;10.50;99.90
6792;DHT22;3433;48.730;9.108;2023-02-12T15:49:42;10.40;99.90
6792;DHT22;3433;48.730;9.108;2023-02-12T15:52:33;10.40;99.90
6792;DHT22;3433;48.730;9.108;2023-02-12T15:55:23;10.30;99.90
6792;DHT22;3433;48.730;9.108;2023-02-12T15:58:21;10.20;99.90
6792;DHT22;3433;48.730;9.108;2023-02-12T16:01:15;10.20;99.90
6792;DHT22;3433;48.730;9.108;2023-02-12T16:04:05;10.00;99.90
6792;DHT22;3433;48.730;9.108;2023-02-12T16:06:52;9.90;99.90
6792;DHT22;3433;48.730;9.108;2023-02-12T16:09:41;9.60;99.90
6792;DHT22;3433;48.730;9.108;2023-02-12T16:12:30;9.70;99.90
6792;DHT22;3433;48.730;9.108;2023-02-12T16:15:27;9.70;99.90
6792;DHT22;3433;48.730;9.108;2023-02-12T16:18:24;9.80;99.90
6792;DHT22;3433;48.730;9.108;2023-02-12T16:21:14;9.50;99.90
6792;DHT22;3433;48.730;9.108;2023-02-12T16:24:03;9.40;99.90
6792;DHT22;3433;48.730;9.108;2023-02-12T16:26:51;9.50;99.90
6792;DHT22;3433;48.730;9.108;2023-02-12T16:29:44;9.30;99.90
6792;DHT22;3433;48.730;9.108;2023-02-12T16:32:35;9.30;99.90
6792;DHT22;3433;48.730;9.108;2023-02-12T16:35:30;9.20;99.90
6792;DHT22;3433;48.730;9.108;2023-02-12T16:38:39;9.20;99.90
6792;DHT22;3433;48.730;9.108;2023-02-12T16:41:29;9.10;99.90
6792;DHT22;3433;48.730;9.108;2023-02-12T16:44:23;9.10;99.90
6792;DHT22;3433;48.730;9.108;2023-02-12T16:47:19;9.00;99.90
6792;DHT22;3433;48.730;9.108;2023-02-12T16:50:14;8.90;99.90
6792;DHT22;3433;48.730;9.108;2023-02-12T16:53:06;8.80;99.90
6792;DHT22;3433;48.730;9.108;2023-02-12T16:55:54;8.80;99.90
6792;DHT22;3433;48.730;9.108;2023-02-12T16:58:41;8.60;99.90
6792;DHT22;3433;48.730;9.108;2023-02-12T17:01:31;8.40;99.90
6792;DHT22;3433;48.730;9.108;2023-02-12T17:04:19;8.40;99.90
6792;DHT22;3433;48.730;9.108;2023-02-12T17:07:16;8.40;99.90
6792;DHT22;3433;48.730;9.108;2023-02-12T17:10:07;8.30;99.90
6792;DHT22;3433;48.730;9.108;2023-02-12T17:12:54;8.20;99.90
6792;DHT22;3433;48.730;9.108;2023-02-12T17:15:45;8.20;99.90
6792;DHT22;3433;48.730;9.108;2023-02-12T17:18:33;8.10;99.90
6792;DHT22;3433;48.730;9.108;2023-02-12T17:21:23;8.20;99.90
6792;DHT22;3433;48.730;9.108;2023-02-12T17:24:16;8.00;99.90
6792;DHT22;3433;48.730;9.108;2023-02-12T17:27:05;7.90;99.90
6792;DHT22;3433;48.730;9.108;2023-02-12T17:29:52;7.90;99.90
6792;DHT22;3433;48.730;9.108;2023-02-12T17:32:40;7.80;99.90
6792;DHT22;3433;48.730;9.108;2023-02-12T17:35:27;7.80;99.90
6792;DHT22;3433;48.730;9.108;2023-02-12T17:38:14;7.90;99.90
6792;DHT22;3433;48.730;9.108;2023-02-12T17:41:01;7.80;99.90
6792;DHT22;3433;48.730;9.108;2023-02-12T17:43:50;7.70;99.90
6792;DHT22;3433;48.730;9.108;2023-02-12T17:46:37;7.80;99.90
6792;DHT22;3433;48.730;9.108;2023-02-12T17:49:24;7.80;99.90
6792;DHT22;3433;48.730;9.108;2023-02-12T17:52:11;7.90;99.90
6792;DHT22;3433;48.730;9.108;2023-02-12T17:54:58;7.80;99.90
6792;DHT22;3433;48.730;9.108;2023-02-12T17:57:50;7.80;99.90
6792;DHT22;3433;48.730;9.108;2023-02-12T18:00:41;7.70;99.90
6792;DHT22;3433;48.730;9.108;2023-02-12T18:03:28;7.80;99.90
6792;DHT22;3433;48.730;9.108;2023-02-12T18:06:20;7.70;99.90
6792;DHT22;3433;48.730;9.108;2023-02-12T18:09:08;7.70;99.90
6792;DHT22;3433;48.730;9.108;2023-02-12T18:11:55;7.80;99.90
6792;DHT22;3433;48.730;9.108;2023-02-12T18:14:42;7.70;99.90
6792;DHT22;3433;48.730;9.108;2023-02-12T18:17:31;7.70;99.90
6792;DHT22;3433;48.730;9.108;2023-02-12T18:20:18;7.60;99.90
6792;DHT22;3433;48.730;9.108;2023-02-12T18:23:06;7.60;99.90
6792;DHT22;3433;48.730;9.108;2023-02-12T18:25:53;7.50;99.90
6792;DHT22;3433;48.730;9.108;2023-02-12T18:28:41;7.50;99.90
6792;DHT22;3433;48.730;9.108;2023-02-12T18:31:28;7.40;99.90
6792;DHT22;3433;48.730;9.108;2023-02-12T18:34:17;7.40;99.90
6792;DHT22;3433;48.730;9.108;2023-02-12T18:37:04;7.30;99.90
6792;DHT22;3433;48.730;9.108;2023-02-12T18:39:51;7.30;99.90
6792;DHT22;3433;48.730;9.108;2023-02-12T18:42:39;7.30;99.90
6792;DHT22;3433;48.730;9.108;2023-02-12T18:45:26;7.30;99.90
6792;DHT22;3433;48.730;9.108;2023-02-12T18:50:44;7.10;99.90
6792;DHT22;3433;48.730;9.108;2023-02-12T18:53:31;7.00;99.90
6792;DHT22;3433;48.730;9.108;2023-02-12T18:56:18;7.00;99.90
6792;DHT22;3433;48.730;9.108;2023-02-12T18:59:06;6.90;99.90
6792;DHT22;3433;48.730;9.108;2023-02-12T19:01:54;6.80;99.90
6792;DHT22;3433;48.730;9.108;2023-02-12T19:04:41;6.80;99.90
6792;DHT22;3433;48.730;9.108;2023-02-12T19:07:29;6.70;99.90